Time;durP1;ratioP1;P1;durP2;ratioP2;P2;SDS_P1;SDS_P2;PMS_P1;PMS_P2;Temp;Humidity;BMP_temperature;BMP_pressure;BME280_temperature;BME280_humidity;BME280_pressure;Samples;Min_cycle;Max_cycle;Signal;HPM_P1;HPM_P2
2023/04/21 00:00:46;;;;;;;18.00;15.43;;;;;;;8.93;60.91;97098.28;5093745;28;20419;-68
2023/04/21 00:03:11;;;;;;;22.07;15.57;;;;;;;8.94;60.89;97099.09;5099039;28;20411;-67
2023/04/21 00:05:41;;;;;;;20.03;15.10;;;;;;;9.02;60.93;97100.03;5089396;28;20974;-69
2023/04/21 00:08:07;;;;;;;19.77;15.80;;;;;;;9.05;61.06;97106.75;5075830;28;20213;-68
2023/04/21 00:10:32;;;;;;;22.10;16.13;;;;;;;8.98;60.68;97098.66;5072215;28;20470;-70
2023/04/21 00:12:58;;;;;;;20.20;16.77;;;;;;;9.04;61.14;97087.63;5088986;28;20530;-69
2023/04/21 00:15:23;;;;;;;19.83;16.63;;;;;;;9.01;61.37;97095.75;5096110;28;20182;-69
2023/04/21 00:17:49;;;;;;;19.87;15.40;;;;;;;8.76;61.95;97092.00;5052706;28;20185;-67
2023/04/21 00:20:15;;;;;;;21.40;16.17;;;;;;;8.78;61.78;97091.88;5095307;28;20731;-67
2023/04/21 00:22:40;;;;;;;22.03;16.97;;;;;;;8.84;61.88;97096.50;5085366;28;20557;-67
2023/04/21 00:25:06;;;;;;;22.20;17.03;;;;;;;8.88;61.52;97098.69;5087821;28;20650;-68
2023/04/21 00:27:31;;;;;;;20.70;17.10;;;;;;;8.94;61.75;97089.47;5091541;28;20279;-69
2023/04/21 00:29:57;;;;;;;20.80;16.40;;;;;;;8.94;61.46;97094.69;5074184;28;20666;-68
2023/04/21 00:32:22;;;;;;;19.83;16.37;;;;;;;8.98;61.29;97087.38;5069482;28;20213;-69
2023/04/21 00:34:48;;;;;;;21.23;15.63;;;;;;;8.99;61.09;97078.56;5088478;28;20643;-68
2023/04/21 00:37:13;;;;;;;23.50;16.50;;;;;;;8.90;61.88;97085.50;5097060;28;20281;-69
2023/04/21 00:39:39;;;;;;;19.03;16.27;;;;;;;8.89;61.32;97082.03;5083799;28;20250;-68
2023/04/21 00:42:04;;;;;;;20.63;16.03;;;;;;;8.90;61.03;97069.81;5087896;28;20200;-68
2023/04/21 00:44:30;;;;;;;19.13;15.47;;;;;;;8.92;61.46;97078.34;5078875;28;20256;-68
2023/04/21 00:46:55;;;;;;;21.17;17.07;;;;;;;8.95;61.49;97074.59;5059348;28;20225;-68
2023/04/21 00:49:22;;;;;;;19.07;15.80;;;;;;;8.96;61.91;97068.41;5064580;28;20221;-68
2023/04/21 00:51:47;;;;;;;20.70;15.83;;;;;;;8.99;61.64;97068.94;5099602;28;20285;-68
2023/04/21 00:54:13;;;;;;;20.53;15.93;;;;;;;8.86;61.74;97065.84;5086517;28;20428;-68
2023/04/21 00:56:38;;;;;;;20.87;16.23;;;;;;;8.91;62.10;97069.66;5093273;28;20630;-68
2023/04/21 00:59:04;;;;;;;19.57;16.10;;;;;;;8.95;61.84;97070.19;5095699;28;20608;-68
2023/04/21 01:01:30;;;;;;;19.90;16.33;;;;;;;8.97;61.35;97070.06;5086094;28;20212;-68
2023/04/21 01:03:59;;;;;;;23.07;16.77;;;;;;;9.00;61.85;97064.53;5087919;28;20213;-67
2023/04/21 01:06:29;;;;;;;19.97;16.50;;;;;;;8.84;61.16;97067.75;5069564;28;22006;-70
2023/04/21 01:08:54;;;;;;;19.97;16.87;;;;;;;8.79;61.76;97059.56;5087752;28;21009;-68
2023/04/21 01:11:20;;;;;;;19.30;16.03;;;;;;;8.81;61.93;97070.69;5071657;28;20428;-69
2023/04/21 01:13:46;;;;;;;18.70;14.90;;;;;;;8.83;61.96;97066.94;5091883;28;20245;-67
2023/04/21 01:16:16;;;;;;;19.13;15.70;;;;;;;8.84;61.45;97059.91;5098441;28;20200;-69
2023/04/21 01:18:42;;;;;;;18.83;15.40;;;;;;;8.58;61.71;97061.41;5068600;28;20918;-68
2023/04/21 01:21:07;;;;;;;18.20;15.47;;;;;;;8.45;61.95;97061.69;5086553;28;20421;-69
2023/04/21 01:23:33;;;;;;;19.20;16.10;;;;;;;8.63;61.69;97053.16;5088001;28;20524;-69
2023/04/21 01:25:58;;;;;;;22.20;16.40;;;;;;;8.72;61.81;97054.88;5088048;28;20181;-69
2023/04/21 01:28:24;;;;;;;21.17;16.10;;;;;;;8.75;61.79;97054.59;5066682;28;20208;-70
2023/04/21 01:30:50;;;;;;;20.90;16.00;;;;;;;8.79;61.55;97056.94;5079750;28;20669;-69
2023/04/21 01:33:16;;;;;;;19.67;15.23;;;;;;;8.78;61.60;97063.13;5078272;28;20542;-67
2023/04/21 01:35:42;;;;;;;18.37;15.53;;;;;;;8.64;61.49;97059.19;5087930;28;20174;-69
2023/04/21 01:38:07;;;;;;;18.70;15.30;;;;;;;8.65;61.95;97066.06;5091558;28;20457;-69
2023/04/21 01:40:33;;;;;;;19.23;15.10;;;;;;;8.71;61.19;97066.31;5079384;28;20172;-69
2023/04/21 01:42:59;;;;;;;19.23;15.27;;;;;;;8.72;61.75;97065.34;5073412;28;20205;-69
2023/04/21 01:45:24;;;;;;;18.77;15.67;;;;;;;8.73;61.58;97072.22;5093465;28;20254;-68
2023/04/21 01:47:50;;;;;;;19.73;15.77;;;;;;;8.61;61.16;97073.38;5082974;28;20174;-68
2023/04/21 01:50:15;;;;;;;19.97;15.93;;;;;;;8.53;62.02;97068.84;5072496;28;20178;-69
2023/04/21 01:52:41;;;;;;;20.27;15.60;;;;;;;8.45;61.64;97066.09;5070991;28;20208;-69
2023/04/21 01:55:06;;;;;;;19.37;16.33;;;;;;;8.55;61.22;97071.34;5089871;28;20654;-69
2023/04/21 01:57:32;;;;;;;17.93;14.37;;;;;;;8.57;61.57;97069.38;5090567;28;20223;-68
2023/04/21 01:59:57;;;;;;;19.43;15.90;;;;;;;8.57;61.50;97069.38;5090771;28;20280;-68
2023/04/21 02:02:23;;;;;;;20.43;16.33;;;;;;;8.56;62.43;97062.53;5087775;28;20735;-69
2023/04/21 02:04:48;;;;;;;16.40;14.00;;;;;;;8.39;61.65;97062.28;5099498;28;20189;-67
2023/04/21 02:07:14;;;;;;;17.57;15.67;;;;;;;8.46;62.19;97060.72;5080008;28;20716;-69
2023/04/21 02:09:39;;;;;;;18.60;15.23;;;;;;;8.37;61.93;97066.00;5086397;28;20220;-69
2023/04/21 02:12:05;;;;;;;19.20;15.67;;;;;;;8.48;61.66;97067.63;5069307;28;20206;-68
2023/04/21 02:14:30;;;;;;;25.90;17.07;;;;;;;8.59;62.38;97064.84;5096995;28;20547;-69
2023/04/21 02:16:56;;;;;;;23.27;17.50;;;;;;;8.58;62.12;97057.97;5072526;28;20195;-69
2023/04/21 02:19:22;;;;;;;21.93;18.27;;;;;;;8.62;62.72;97059.34;5067323;28;20202;-69
2023/04/21 02:21:47;;;;;;;22.90;17.50;;;;;;;8.65;63.08;97056.44;5072674;28;20174;-67
2023/04/21 02:24:13;;;;;;;21.00;17.13;;;;;;;8.65;62.95;97056.44;5052463;28;20490;-70
2023/04/21 02:26:38;;;;;;;21.20;17.63;;;;;;;8.57;62.56;97056.31;5088618;28;20188;-69
2023/04/21 02:29:04;;;;;;;21.83;17.33;;;;;;;8.55;62.20;97051.25;5085482;28;20568;-69
2023/04/21 02:31:29;;;;;;;22.47;17.70;;;;;;;8.43;62.50;97052.34;5079165;28;20201;-68
2023/04/21 02:33:55;;;;;;;21.43;16.80;;;;;;;8.42;62.42;97056.78;5062591;28;20359;-68
2023/04/21 02:36:20;;;;;;;22.13;17.60;;;;;;;8.39;61.94;97054.44;5071482;28;20227;-68
2023/04/21 02:38:46;;;;;;;23.87;17.00;;;;;;;8.41;61.55;97056.91;5102714;28;20202;-68
2023/04/21 02:41:11;;;;;;;19.83;15.97;;;;;;;8.39;61.50;97067.50;5071977;28;20208;-69
2023/04/21 02:43:37;;;;;;;21.33;15.50;;;;;;;8.38;61.27;97071.06;5072237;28;20248;-69
2023/04/21 02:46:06;;;;;;;20.80;15.47;;;;;;;8.27;61.71;97072.03;5103017;28;20613;-69
2023/04/21 02:48:31;;;;;;;17.30;14.47;;;;;;;8.25;61.49;97062.72;5072496;28;20582;-69
2023/04/21 02:50:57;;;;;;;18.60;15.13;;;;;;;8.28;61.16;97065.06;5073034;28;20427;-69
2023/04/21 02:53:22;;;;;;;20.10;15.33;;;;;;;8.26;61.23;97073.00;5055017;28;20347;-67
2023/04/21 02:55:48;;;;;;;21.63;15.70;;;;;;;8.20;61.03;97077.97;5094954;28;20187;-69
2023/04/21 02:58:13;;;;;;;17.83;14.50;;;;;;;8.23;61.30;97067.25;5092870;28;20194;-69
2023/04/21 03:00:39;;;;;;;17.77;14.37;;;;;;;8.10;60.62;97060.53;5080701;28;20800;-69
2023/04/21 03:03:05;;;;;;;17.33;14.60;;;;;;;8.13;60.77;97059.44;5094903;28;20190;-69
2023/04/21 03:05:30;;;;;;;19.47;16.00;;;;;;;8.11;60.79;97056.97;5093490;28;20182;-69
2023/04/21 03:07:56;;;;;;;21.47;15.00;;;;;;;7.97;60.33;97058.25;5102233;28;20583;-67
2023/04/21 03:10:21;;;;;;;18.10;14.83;;;;;;;7.67;61.76;97048.78;5098036;28;20208;-68
2023/04/21 03:12:47;;;;;;;17.27;14.03;;;;;;;7.82;61.38;97050.00;5061324;28;20197;-67
2023/04/21 03:15:13;;;;;;;18.80;14.73;;;;;;;7.88;61.28;97035.56;5079473;28;20182;-67
2023/04/21 03:17:42;;;;;;;17.00;14.20;;;;;;;7.96;60.81;97046.16;5079037;28;20185;-69
2023/04/21 03:20:10;;;;;;;17.33;14.63;;;;;;;7.93;60.26;97045.63;5081503;28;20420;-67
2023/04/21 03:22:36;;;;;;;19.60;14.13;;;;;;;7.97;60.64;97053.03;5080841;28;20951;-69
2023/04/21 03:25:01;;;;;;;17.77;15.10;;;;;;;7.86;60.93;97044.50;5078589;28;20427;-68
2023/04/21 03:27:27;;;;;;;21.23;15.70;;;;;;;7.86;61.22;97049.72;5089480;28;20462;-69
2023/04/21 03:29:52;;;;;;;18.93;15.50;;;;;;;7.86;61.77;97052.34;5088759;28;20682;-69
2023/04/21 03:32:18;;;;;;;18.53;15.20;;;;;;;7.92;61.56;97060.44;5084140;28;20292;-69
2023/04/21 03:34:43;;;;;;;17.07;13.10;;;;;;;7.96;61.61;97050.53;5093490;28;20260;-68
2023/04/21 03:37:09;;;;;;;20.40;14.77;;;;;;;8.04;61.04;97047.22;5093893;28;20185;-67
2023/04/21 03:39:34;;;;;;;18.30;15.07;;;;;;;8.06;60.70;97045.31;5088319;28;20208;-69
2023/04/21 03:42:00;;;;;;;17.83;14.30;;;;;;;7.93;61.34;97040.41;5089231;28;20644;-67
2023/04/21 03:44:27;;;;;;;19.33;15.53;;;;;;;7.85;61.76;97035.88;5087506;28;20246;-69
2023/04/21 03:46:53;;;;;;;22.97;16.27;;;;;;;7.86;61.67;97040.13;5070151;28;20182;-66
2023/04/21 03:49:19;;;;;;;19.20;14.33;;;;;;;7.97;61.95;97039.97;5085826;28;20448;-69
2023/04/21 03:51:45;;;;;;;19.33;14.07;;;;;;;7.99;61.33;97047.66;5089108;28;20480;-67
2023/04/21 03:54:10;;;;;;;19.93;14.10;;;;;;;8.00;60.45;97046.69;5070890;28;20178;-69
2023/04/21 03:56:36;;;;;;;22.07;14.10;;;;;;;7.89;61.39;97044.25;5095119;28;20180;-69
2023/04/21 03:59:01;;;;;;;19.10;14.57;;;;;;;7.79;61.26;97046.84;5069032;28;20673;-69
2023/04/21 04:01:27;;;;;;;17.00;13.20;;;;;;;7.62;61.94;97053.59;5090586;28;20200;-69
2023/04/21 04:03:52;;;;;;;16.97;13.50;;;;;;;7.64;61.99;97051.66;5091914;28;20253;-69
2023/04/21 04:06:17;;;;;;;16.13;13.37;;;;;;;7.75;61.82;97054.13;5088342;28;20666;-69
2023/04/21 04:08:43;;;;;;;16.77;13.63;;;;;;;7.83;61.50;97043.00;5092686;28;20254;-68
2023/04/21 04:11:08;;;;;;;18.00;13.80;;;;;;;7.87;61.48;97048.75;5096780;28;20260;-67
2023/04/21 04:13:34;;;;;;;17.07;13.87;;;;;;;7.89;61.63;97058.09;5098212;28;20266;-68
2023/04/21 04:16:00;;;;;;;19.27;13.63;;;;;;;7.95;61.79;97051.50;5096982;28;20178;-69
2023/04/21 04:18:25;;;;;;;16.30;11.90;;;;;;;7.94;61.93;97050.69;5087965;28;20204;-69
2023/04/21 04:20:50;;;;;;;19.83;13.73;;;;;;;7.99;61.70;97051.09;5081826;28;20181;-67
2023/04/21 04:23:16;;;;;;;15.97;13.50;;;;;;;7.96;61.17;97053.97;5085665;28;20239;-67
2023/04/21 04:25:41;;;;;;;14.83;12.60;;;;;;;8.04;61.62;97052.44;5085699;28;20173;-69
2023/04/21 04:28:08;;;;;;;18.20;13.20;;;;;;;8.00;61.71;97059.75;5088068;28;20201;-69
2023/04/21 04:30:34;;;;;;;18.50;13.70;;;;;;;7.90;61.42;97053.72;5095089;28;20190;-69
2023/04/21 04:33:00;;;;;;;18.97;14.33;;;;;;;7.89;61.89;97059.88;5088810;28;20451;-68
2023/04/21 04:35:25;;;;;;;16.87;14.17;;;;;;;7.88;62.25;97056.44;5087546;28;20902;-68
2023/04/21 04:37:51;;;;;;;18.47;13.70;;;;;;;7.99;62.08;97058.09;5079629;28;20420;-68
2023/04/21 04:40:18;;;;;;;16.93;13.70;;;;;;;8.01;61.39;97058.78;5044758;28;20179;-69
2023/04/21 04:42:45;;;;;;;16.77;13.53;;;;;;;7.90;62.22;97051.09;5083495;28;20180;-68
2023/04/21 04:45:12;;;;;;;23.27;15.23;;;;;;;7.96;62.14;97060.97;5058654;28;20924;-69
2023/04/21 04:47:38;;;;;;;18.00;13.53;;;;;;;8.01;61.57;97050.94;5060433;28;20436;-69
2023/04/21 04:50:04;;;;;;;21.17;15.90;;;;;;;7.99;61.36;97056.31;5087563;28;20439;-68
2023/04/21 04:52:30;;;;;;;21.47;13.67;;;;;;;8.02;61.62;97055.22;5087209;28;20212;-68
2023/04/21 04:54:55;;;;;;;17.50;13.40;;;;;;;8.01;61.42;97064.00;5087589;28;20412;-69
2023/04/21 04:57:21;;;;;;;17.60;13.00;;;;;;;7.97;62.09;97062.63;5068982;28;20190;-70
2023/04/21 04:59:46;;;;;;;15.40;12.60;;;;;;;7.89;62.66;97060.69;5093954;28;20204;-68
2023/04/21 05:02:12;;;;;;;15.17;12.63;;;;;;;8.02;62.25;97068.25;5051644;28;20666;-69
2023/04/21 05:04:38;;;;;;;17.13;12.63;;;;;;;8.02;62.62;97076.09;5069076;28;20221;-68
2023/04/21 05:07:05;;;;;;;16.87;13.40;;;;;;;8.12;62.27;97078.69;5087823;28;20185;-69
2023/04/21 05:09:30;;;;;;;17.07;13.17;;;;;;;8.14;62.25;97082.81;5060374;28;20213;-69
2023/04/21 05:11:56;;;;;;;18.07;13.37;;;;;;;8.17;62.13;97083.50;5078942;28;20929;-68
2023/04/21 05:14:21;;;;;;;21.50;14.37;;;;;;;8.18;62.85;97087.75;5079620;28;20209;-69
2023/04/21 05:16:46;;;;;;;17.50;13.83;;;;;;;8.23;62.48;97088.97;5058653;28;20178;-67
2023/04/21 05:19:12;;;;;;;21.13;15.83;;;;;;;8.25;62.63;97086.22;5064909;28;20194;-67
2023/04/21 05:21:37;;;;;;;24.10;17.10;;;;;;;8.24;63.39;97095.84;5058206;28;20194;-70
2023/04/21 05:24:03;;;;;;;22.30;17.70;;;;;;;8.18;64.61;97091.16;5078467;28;20170;-69
2023/04/21 05:26:29;;;;;;;24.63;17.07;;;;;;;8.27;64.44;97092.13;5076976;28;20273;-68
2023/04/21 05:28:55;;;;;;;21.93;17.43;;;;;;;8.29;64.16;97093.63;5079069;28;20198;-69
2023/04/21 05:31:21;;;;;;;25.90;19.63;;;;;;;8.38;64.38;97096.38;5086785;28;20205;-69
2023/04/21 05:33:47;;;;;;;29.43;20.57;;;;;;;8.45;64.10;97103.47;5087693;28;20536;-69
2023/04/21 05:36:13;;;;;;;30.37;19.97;;;;;;;8.56;64.39;97096.50;5068057;28;20855;-69
2023/04/21 05:38:38;;;;;;;28.70;21.13;;;;;;;8.61;64.55;97104.72;5051997;28;20194;-68
2023/04/21 05:41:04;;;;;;;28.67;20.50;;;;;;;8.65;64.79;97118.31;5076951;28;20184;-67
2023/04/21 05:43:32;;;;;;;27.93;20.27;;;;;;;8.59;64.76;97111.84;5062825;28;20179;-69
2023/04/21 05:45:58;;;;;;;30.13;21.23;;;;;;;8.61;64.84;97104.72;5074204;28;20650;-69
2023/04/21 05:48:24;;;;;;;29.63;20.40;;;;;;;8.58;64.81;97102.38;5061212;28;20525;-68
2023/04/21 05:50:49;;;;;;;30.27;21.73;;;;;;;8.55;65.27;97097.47;5057651;28;20878;-69
2023/04/21 05:53:15;;;;;;;31.57;22.27;;;;;;;8.55;65.43;97100.06;5065041;28;20555;-69
2023/04/21 05:55:40;;;;;;;31.53;22.40;;;;;;;8.61;65.26;97104.72;5058647;28;20183;-68
2023/04/21 05:58:06;;;;;;;32.73;22.50;;;;;;;8.64;65.11;97085.31;5081480;28;20174;-69
2023/04/21 06:00:31;;;;;;;30.10;21.20;;;;;;;8.73;64.88;97074.81;5076903;28;20184;-70
2023/04/21 06:02:56;;;;;;;30.60;21.33;;;;;;;8.79;65.53;97067.38;5086259;28;20634;-69
2023/04/21 06:05:22;;;;;;;32.17;22.27;;;;;;;8.88;64.95;97071.75;5058415;28;20269;-69
2023/04/21 06:07:47;;;;;;;31.13;23.17;;;;;;;8.91;65.00;97077.50;5081579;28;20323;-68
2023/04/21 06:10:13;;;;;;;31.23;22.53;;;;;;;9.04;64.76;97081.56;5062191;28;20707;-69
2023/04/21 06:12:39;;;;;;;30.80;22.00;;;;;;;9.14;64.95;97081.53;5064306;28;20215;-69
2023/04/21 06:15:05;;;;;;;28.43;21.17;;;;;;;9.18;65.47;97068.00;5093563;28;20174;-69
2023/04/21 06:17:30;;;;;;;28.80;20.90;;;;;;;9.27;65.22;97061.06;5057735;28;20548;-68
2023/04/21 06:19:56;;;;;;;31.33;20.43;;;;;;;9.36;65.31;97072.44;5094283;28;20572;-69
2023/04/21 06:22:22;;;;;;;27.17;19.87;;;;;;;9.45;64.88;97070.75;5091138;28;20883;-69
2023/04/21 06:24:47;;;;;;;40.67;30.27;;;;;;;9.51;64.70;97072.75;5073078;28;20201;-69
2023/04/21 06:27:13;;;;;;;37.80;29.33;;;;;;;9.66;64.92;97080.91;5066855;28;20451;-69
2023/04/21 06:29:39;;;;;;;36.67;24.83;;;;;;;9.78;64.75;97078.88;5062276;28;20887;-69
2023/04/21 06:32:05;;;;;;;33.00;23.90;;;;;;;9.89;64.62;97081.28;5060541;28;20193;-68
2023/04/21 06:34:30;;;;;;;32.77;23.87;;;;;;;9.95;64.51;97075.44;5064841;28;20214;-69
2023/04/21 06:36:56;;;;;;;36.40;25.10;;;;;;;10.04;64.51;97078.94;5060364;28;20265;-68
2023/04/21 06:39:21;;;;;;;31.00;22.83;;;;;;;10.09;64.03;97070.59;5076617;28;20198;-69
2023/04/21 06:41:46;;;;;;;29.93;21.23;;;;;;;10.12;63.55;97072.94;5075411;28;20265;-68
2023/04/21 06:44:12;;;;;;;31.70;22.63;;;;;;;10.13;63.80;97059.69;5081030;28;20319;-70
2023/04/21 06:46:41;;;;;;;33.20;22.83;;;;;;;10.15;63.56;97067.41;5078431;28;20194;-69
2023/04/21 06:49:07;;;;;;;33.47;23.43;;;;;;;10.17;63.71;97078.53;5074428;28;20528;-68
2023/04/21 06:51:33;;;;;;;39.87;29.70;;;;;;;10.20;63.67;97083.47;5083949;28;21017;-69
2023/04/21 06:53:58;;;;;;;37.47;27.50;;;;;;;10.26;63.66;97076.81;5064283;28;20455;-70
2023/04/21 06:56:29;;;;;;;32.70;24.43;;;;;;;10.29;63.90;97077.31;5083805;28;20280;-69
2023/04/21 06:58:55;;;;;;;33.53;23.90;;;;;;;10.36;63.56;97068.84;5075909;28;20205;-69
2023/04/21 07:01:23;;;;;;;29.80;22.50;;;;;;;10.54;63.79;97064.41;5064601;28;20839;-70
2023/04/21 07:03:49;;;;;;;29.80;23.23;;;;;;;10.73;63.87;97075.63;5058713;28;20504;-70
2023/04/21 07:06:14;;;;;;;29.17;21.87;;;;;;;10.87;63.45;97064.53;5061332;28;20502;-69
2023/04/21 07:08:40;;;;;;;29.03;21.60;;;;;;;11.09;62.95;97067.56;5063284;28;20519;-68
2023/04/21 07:11:05;;;;;;;29.60;22.60;;;;;;;11.27;62.56;97062.25;5061023;28;20201;-67
2023/04/21 07:13:31;;;;;;;31.47;22.43;;;;;;;11.37;62.03;97062.06;5081289;28;20468;-70
2023/04/21 07:15:56;;;;;;;36.70;23.10;;;;;;;11.43;61.11;97066.69;5078418;28;20265;-68
2023/04/21 07:18:22;;;;;;;28.83;20.80;;;;;;;11.45;61.16;97062.13;5068692;28;20237;-68
2023/04/21 07:20:47;;;;;;;29.47;22.03;;;;;;;11.51;60.83;97066.69;5064800;28;20186;-70
2023/04/21 07:23:13;;;;;;;26.87;17.73;;;;;;;11.50;60.71;97069.50;5098271;28;20323;-69
2023/04/21 07:25:38;;;;;;;26.40;20.03;;;;;;;11.63;60.51;97056.72;5097042;28;20757;-69
2023/04/21 07:28:04;;;;;;;26.53;20.00;;;;;;;11.71;60.05;97068.22;5075248;28;20253;-70
2023/04/21 07:30:29;;;;;;;25.83;18.87;;;;;;;11.88;60.22;97053.28;5074280;28;20186;-70
2023/04/21 07:32:56;;;;;;;24.60;17.50;;;;;;;12.04;60.12;97053.31;5055042;28;20190;-69
2023/04/21 07:35:21;;;;;;;26.40;19.90;;;;;;;12.23;60.13;97040.78;5042464;28;20182;-70
2023/04/21 07:37:47;;;;;;;24.30;19.30;;;;;;;12.44;59.61;97046.34;5074298;28;20488;-70
2023/04/21 07:40:12;;;;;;;26.73;19.83;;;;;;;12.57;59.20;97047.63;5088522;28;20289;-68
2023/04/21 07:42:38;;;;;;;27.27;19.87;;;;;;;12.75;59.61;97047.41;5065473;28;20700;-70
2023/04/21 07:45:04;;;;;;;22.67;17.97;;;;;;;12.86;59.09;97051.47;5064017;28;20209;-70
2023/04/21 07:47:30;;;;;;;23.17;18.13;;;;;;;12.98;58.34;97050.09;5066515;28;20186;-69
2023/04/21 07:49:55;;;;;;;25.63;18.20;;;;;;;13.02;57.58;97047.97;5056244;28;20468;-69
2023/04/21 07:52:21;;;;;;;25.03;18.57;;;;;;;13.24;58.02;97056.06;5064867;28;20568;-69
2023/04/21 07:54:46;;;;;;;21.50;16.87;;;;;;;13.32;56.44;97051.59;5080373;28;20198;-69
2023/04/21 07:57:12;;;;;;;18.40;14.87;;;;;;;13.59;55.82;97048.66;5031705;28;20240;-70
2023/04/21 07:59:37;;;;;;;18.43;14.90;;;;;;;13.93;55.81;97045.59;5059255;28;20205;-69
2023/04/21 08:02:03;;;;;;;19.23;15.10;;;;;;;14.25;54.74;97035.75;5085190;28;20531;-68
2023/04/21 08:04:29;;;;;;;19.67;15.23;;;;;;;14.47;53.55;97035.88;5031875;28;20675;-71
2023/04/21 08:06:54;;;;;;;15.90;13.77;;;;;;;14.71;52.21;97028.72;5080728;28;20415;-69
2023/04/21 08:09:20;;;;;;;18.77;14.63;;;;;;;14.65;52.41;97026.78;5064023;28;20655;-70
2023/04/21 08:11:46;;;;;;;17.57;13.10;;;;;;;14.90;52.98;97025.50;5056688;28;20209;-70
2023/04/21 08:14:11;;;;;;;16.37;13.80;;;;;;;15.16;52.01;97028.66;5085813;28;20210;-70
2023/04/21 08:16:39;;;;;;;16.33;13.97;;;;;;;15.38;49.75;97032.13;5048593;28;20859;-69
2023/04/21 08:19:06;;;;;;;15.53;12.40;;;;;;;15.54;50.72;97024.97;5052948;28;20208;-70
2023/04/21 08:21:32;;;;;;;15.60;12.07;;;;;;;15.64;49.33;97026.31;5067105;28;20454;-69
2023/04/21 08:23:58;;;;;;;14.73;12.00;;;;;;;15.80;49.52;97021.78;5070537;28;20428;-70
2023/04/21 08:26:24;;;;;;;15.00;11.60;;;;;;;16.12;48.97;97017.81;5042556;28;20432;-69
2023/04/21 08:28:50;;;;;;;11.43;10.23;;;;;;;16.40;48.19;97019.59;5095640;28;20232;-69
2023/04/21 08:31:16;;;;;;;11.30;9.70;;;;;;;16.41;46.87;97029.16;5088260;28;20798;-71
2023/04/21 08:33:42;;;;;;;11.00;9.13;;;;;;;16.54;48.11;97022.31;5071782;28;20448;-69
2023/04/21 08:36:08;;;;;;;10.80;9.13;;;;;;;16.72;46.31;97017.34;5071674;28;21022;-70
2023/04/21 08:38:34;;;;;;;10.70;9.10;;;;;;;16.91;46.48;97016.81;5069492;28;20205;-71
2023/04/21 08:40:59;;;;;;;10.00;8.03;;;;;;;17.10;45.75;97005.50;5074885;28;20200;-69
2023/04/21 08:43:25;;;;;;;9.57;8.40;;;;;;;17.45;45.52;97015.97;5076451;28;20424;-70
2023/04/21 08:45:53;;;;;;;9.97;7.83;;;;;;;17.66;44.85;97015.00;5081848;28;20182;-70
2023/04/21 08:48:20;;;;;;;10.23;9.23;;;;;;;17.91;44.57;97009.09;5053657;28;20262;-70
2023/04/21 08:50:49;;;;;;;8.90;8.00;;;;;;;18.07;43.85;97010.56;5061486;28;20432;-70
2023/04/21 08:53:15;;;;;;;9.70;8.13;;;;;;;17.85;43.56;97023.19;5077711;28;20633;-70
2023/04/21 08:55:41;;;;;;;8.83;7.63;;;;;;;18.03;44.41;97027.06;5061004;28;20475;-71
2023/04/21 08:58:08;;;;;;;13.60;8.77;;;;;;;18.15;43.80;97022.78;5078721;28;20807;-70
2023/04/21 09:00:34;;;;;;;8.37;6.77;;;;;;;18.35;42.91;97024.63;5056389;28;20443;-71
2023/04/21 09:03:01;;;;;;;7.03;6.43;;;;;;;18.32;41.66;97019.72;5061742;28;20428;-70
2023/04/21 09:05:29;;;;;;;8.43;7.57;;;;;;;18.38;41.73;97021.56;5042325;28;20424;-70
2023/04/21 09:08:12;;;;;;;10.37;8.30;;;;;;;18.60;42.64;97011.47;5066664;28;20428;-69
2023/04/21 09:10:45;;;;;;;21.70;17.40;;;;;;;18.79;42.26;97009.78;5073037;28;20411;-70
2023/04/21 09:13:10;;;;;;;14.43;11.50;;;;;;;19.07;41.52;97006.03;5042806;28;20448;-70
2023/04/21 09:15:40;;;;;;;7.77;6.10;;;;;;;19.29;40.75;96997.75;5040682;28;20452;-71
2023/04/21 09:18:22;;;;;;;13.37;10.93;;;;;;;19.59;40.80;97002.47;5082848;28;20260;-69
2023/04/21 09:21:04;;;;;;;11.67;10.47;;;;;;;19.82;41.07;96995.78;5046400;28;20424;-71
2023/04/21 09:23:30;;;;;;;7.07;6.37;;;;;;;19.84;39.40;96999.03;5094017;28;20930;-69
2023/04/21 09:25:55;;;;;;;9.67;8.70;;;;;;;19.85;38.25;97001.47;5086676;28;20415;-70
2023/04/21 09:28:21;;;;;;;9.10;8.20;;;;;;;19.98;39.22;97005.06;5079785;28;20680;-70
2023/04/21 09:30:47;;;;;;;9.57;6.83;;;;;;;20.03;38.12;97003.41;5008546;28;1111657;-70
2023/04/21 09:33:19;;;;;;;6.80;5.83;;;;;;;19.77;38.72;97015.88;5077519;28;20290;-70
2023/04/21 09:35:44;;;;;;;20.07;17.10;;;;;;;20.22;39.02;96995.47;5050244;28;20427;-70
2023/04/21 09:38:11;;;;;;;19.10;15.40;;;;;;;20.53;38.61;96985.75;5061607;28;20514;-71
2023/04/21 09:40:37;;;;;;;6.80;6.20;;;;;;;20.63;37.07;96987.88;5080950;28;20193;-69
2023/04/21 09:43:03;;;;;;;4.90;4.50;;;;;;;20.20;37.82;96993.03;5076681;28;20430;-69
2023/04/21 09:45:29;;;;;;;7.63;5.70;;;;;;;20.59;37.83;96990.16;5093696;28;20906;-69
2023/04/21 09:47:56;;;;;;;10.23;9.07;;;;;;;20.75;37.25;96994.13;5083123;28;20182;-71
2023/04/21 09:50:22;;;;;;;10.10;6.43;;;;;;;20.86;37.64;96993.38;5060757;28;20570;-69
2023/04/21 09:52:53;;;;;;;8.60;5.97;;;;;;;20.82;37.08;96994.03;5057992;28;20547;-69
2023/04/21 09:55:23;;;;;;;7.70;6.90;;;;;;;21.01;37.91;96987.66;5059988;28;20488;-70
2023/04/21 09:57:50;;;;;;;12.93;6.07;;;;;;;21.27;37.18;96990.19;5060290;28;20481;-69
2023/04/21 10:00:16;;;;;;;5.80;5.30;;;;;;;21.38;36.76;96983.28;5088591;28;20452;-69
2023/04/21 10:02:52;;;;;;;9.87;8.83;;;;;;;21.71;37.02;96985.47;5043889;28;20539;-70
2023/04/21 10:05:17;;;;;;;6.57;5.97;;;;;;;21.78;35.37;96969.38;5059700;28;20420;-70
2023/04/21 10:07:44;;;;;;;7.90;6.37;;;;;;;21.83;36.31;96972.16;5078957;28;20438;-70
2023/04/21 10:10:23;;;;;;;9.30;5.43;;;;;;;21.62;35.76;96971.66;5071245;28;20202;-70
2023/04/21 10:12:50;;;;;;;5.67;5.13;;;;;;;21.70;36.08;96972.38;5046896;28;20513;-69
2023/04/21 10:15:36;;;;;;;6.10;5.13;;;;;;;21.42;36.50;96966.59;5062552;28;20478;-70
2023/04/21 10:18:12;;;;;;;6.50;5.90;;;;;;;21.25;36.67;96960.28;5063051;28;20923;-70
2023/04/21 10:20:56;;;;;;;5.77;5.27;;;;;;;21.17;36.92;96967.56;5079559;28;20433;-68
2023/04/21 10:23:32;;;;;;;10.73;6.10;;;;;;;21.26;36.67;96970.72;5087705;28;20454;-69
2023/04/21 10:26:24;;;;;;;8.33;6.70;;;;;;;21.75;37.18;96964.50;5053098;28;20427;-69
2023/04/21 10:28:58;;;;;;;8.13;6.60;;;;;;;21.56;36.83;96961.88;5073084;28;20464;-69
2023/04/21 10:31:28;;;;;;;7.67;6.87;;;;;;;21.88;37.25;96968.78;5065775;28;20450;-71
2023/04/21 10:34:06;;;;;;;8.90;6.87;;;;;;;22.11;37.54;96956.53;5067679;28;20462;-70
2023/04/21 10:36:33;;;;;;;9.37;7.40;;;;;;;22.30;35.97;96965.22;5082071;28;20813;-70
2023/04/21 10:39:03;;;;;;;8.07;6.70;;;;;;;22.42;35.72;96959.88;5086763;28;20977;-69
2023/04/21 10:41:38;;;;;;;7.80;6.80;;;;;;;22.48;36.17;96962.44;5057303;28;20429;-71
2023/04/21 10:44:06;;;;;;;7.80;7.10;;;;;;;22.81;35.84;96950.25;5059988;28;20420;-70
2023/04/21 10:46:36;;;;;;;7.70;6.70;;;;;;;22.89;35.87;96953.63;5063183;28;20432;-70
2023/04/21 10:49:08;;;;;;;8.30;7.50;;;;;;;22.67;35.52;96949.72;5085973;28;20818;-71
2023/04/21 10:51:56;;;;;;;9.37;7.77;;;;;;;22.39;36.45;96950.47;5042632;28;20428;-70
2023/04/21 10:54:21;;;;;;;7.80;7.00;;;;;;;22.69;35.91;96944.13;5076860;28;20463;-71
2023/04/21 10:56:48;;;;;;;11.83;7.67;;;;;;;22.30;35.67;96938.53;5084159;28;20427;-70
2023/04/21 10:59:15;;;;;;;8.90;8.00;;;;;;;22.53;35.89;96943.03;5067693;28;20212;-70
2023/04/21 11:01:41;;;;;;;8.53;7.10;;;;;;;22.48;36.27;96943.72;5066533;28;20411;-69
2023/04/21 11:04:12;;;;;;;7.93;7.13;;;;;;;22.32;35.75;96944.41;5081818;28;20416;-69
2023/04/21 11:06:38;;;;;;;8.63;7.73;;;;;;;22.57;35.64;96943.34;5048543;28;20427;-70
2023/04/21 11:09:03;;;;;;;8.43;7.53;;;;;;;22.23;35.35;96942.13;5083356;28;20450;-69
2023/04/21 11:11:29;;;;;;;9.83;8.10;;;;;;;22.60;35.92;96946.41;5069523;28;20193;-71
2023/04/21 11:13:58;;;;;;;8.93;7.87;;;;;;;22.58;35.64;96943.13;5058966;28;20193;-70
2023/04/21 11:16:24;;;;;;;8.93;8.03;;;;;;;22.72;35.40;96935.66;5089796;28;20181;-70
2023/04/21 11:18:50;;;;;;;9.10;8.20;;;;;;;22.95;36.18;96936.63;5071134;28;20492;-69
2023/04/21 11:21:17;;;;;;;8.73;7.83;;;;;;;23.19;36.11;96923.97;5083972;28;20788;-71